createdAt,value
2019-01-20T00:00:21.561Z,8.83
2019-01-20T00:02:49.943Z,8.20
2019-01-20T00:05:18.850Z,9.20
2019-01-20T00:07:47.169Z,9.43
2019-01-20T00:10:15.838Z,9.93
2019-01-20T00:12:44.224Z,11.17
2019-01-20T00:15:17.917Z,9.80
2019-01-20T00:17:46.704Z,9.37
2019-01-20T00:20:15.530Z,10.57
2019-01-20T00:22:43.866Z,9.90
2019-01-20T00:25:12.354Z,9.67
2019-01-20T00:27:40.660Z,10.80
2019-01-20T00:30:15.020Z,10.50
2019-01-20T00:32:43.276Z,8.77
2019-01-20T00:35:11.745Z,9.73
2019-01-20T00:37:40.405Z,10.17
2019-01-20T00:40:14.952Z,8.93
2019-01-20T00:42:43.625Z,10.93
2019-01-20T00:45:16.982Z,9.47
2019-01-20T00:47:45.447Z,9.80
2019-01-20T00:50:16.072Z,8.93
2019-01-20T00:52:44.555Z,11.93
2019-01-20T00:55:17.528Z,10.60
2019-01-20T00:57:46.200Z,9.60
2019-01-20T01:00:20.724Z,8.47
2019-01-20T01:02:49.128Z,8.73
2019-01-20T01:05:19.286Z,10.93
2019-01-20T01:07:47.961Z,10.47
2019-01-20T01:10:16.622Z,10.10
2019-01-20T01:12:45.796Z,9.80
2019-01-20T01:15:14.486Z,10.03
2019-01-20T01:17:42.818Z,8.17
2019-01-20T01:20:18.758Z,10.60
2019-01-20T01:22:47.163Z,8.70
2019-01-20T01:25:16.512Z,9.53
2019-01-20T01:27:44.922Z,10.27
2019-01-20T01:30:21.907Z,9.67
2019-01-20T01:32:50.314Z,10.87
2019-01-20T01:35:18.699Z,9.77
2019-01-20T01:37:47.545Z,11.50
2019-01-20T01:40:17.599Z,10.90
2019-01-20T01:42:46.241Z,11.20
2019-01-20T01:45:17.710Z,10.47
2019-01-20T01:47:46.513Z,11.03
2019-01-20T01:50:16.277Z,10.43
2019-01-20T01:52:44.686Z,10.43
2019-01-20T01:55:13.716Z,10.57
2019-01-20T01:57:42.127Z,10.73
2019-01-20T02:00:16.091Z,9.60
2019-01-20T02:02:44.974Z,9.57
2019-01-20T02:05:13.774Z,9.90
2019-01-20T02:07:42.174Z,10.30
2019-01-20T02:10:13.927Z,9.57
2019-01-20T02:12:42.696Z,9.10
2019-01-20T02:15:13.426Z,9.70
2019-01-20T02:17:41.912Z,10.07
2019-01-20T02:20:13.498Z,10.47
2019-01-20T02:22:42.381Z,10.17
2019-01-20T02:25:11.480Z,10.50
2019-01-20T02:27:39.889Z,10.97
2019-01-20T02:30:17.078Z,10.70
2019-01-20T02:32:45.989Z,9.70
2019-01-20T02:35:14.675Z,9.73
2019-01-20T02:37:43.634Z,10.73
2019-01-20T02:40:14.984Z,9.33
2019-01-20T02:42:43.322Z,10.80
2019-01-20T02:45:13.878Z,10.83
2019-01-20T02:47:42.285Z,9.70
2019-01-20T02:50:13.153Z,10.97
2019-01-20T02:52:41.701Z,10.37
2019-01-20T02:55:10.394Z,10.10
2019-01-20T02:57:38.802Z,10.17
2019-01-20T03:00:23.501Z,9.27
2019-01-20T03:02:51.904Z,8.80
2019-01-20T03:05:21.572Z,10.17
2019-01-20T03:07:50.033Z,10.57
2019-01-20T03:10:18.425Z,11.17
2019-01-20T03:12:46.905Z,11.23
2019-01-20T03:15:15.494Z,10.10
2019-01-20T03:17:43.885Z,10.30
2019-01-20T03:20:14.982Z,9.20
2019-01-20T03:22:43.359Z,9.20
2019-01-20T03:25:14.433Z,9.83
2019-01-20T03:27:43.116Z,10.60
2019-01-20T03:30:20.605Z,9.23
2019-01-20T03:32:48.948Z,9.58
2019-01-20T03:35:20.479Z,10.57
2019-01-20T03:37:49.229Z,11.70
2019-01-20T03:40:19.511Z,11.47
2019-01-20T03:42:48.468Z,9.03
2019-01-20T03:45:18.453Z,11.47
2019-01-20T03:47:46.911Z,10.20
2019-01-20T03:50:17.387Z,10.33
2019-01-20T03:52:46.386Z,11.75
2019-01-20T03:55:18.714Z,9.03
2019-01-20T03:57:47.578Z,13.73
2019-01-20T04:00:19.414Z,11.22
2019-01-20T04:02:49.559Z,10.20
2019-01-20T04:05:17.977Z,10.08
2019-01-20T04:07:46.296Z,10.00
2019-01-20T04:10:16.432Z,10.00
2019-01-20T04:12:44.768Z,10.50
2019-01-20T04:15:15.316Z,11.07
2019-01-20T04:17:44.078Z,10.00
2019-01-20T04:20:14.751Z,9.07
2019-01-20T04:22:43.313Z,10.27
2019-01-20T04:25:14.811Z,9.90
2019-01-20T04:27:43.127Z,9.60
2019-01-20T04:30:14.126Z,10.23
2019-01-20T04:32:42.447Z,9.40
2019-01-20T04:35:11.510Z,10.70
2019-01-20T04:37:39.895Z,11.63
2019-01-20T04:40:11.348Z,9.40
2019-01-20T04:42:39.683Z,12.10
2019-01-20T04:45:11.482Z,9.20
2019-01-20T04:47:39.872Z,9.30
2019-01-20T04:50:13.788Z,10.90
2019-01-20T04:52:42.176Z,9.63
2019-01-20T04:55:12.653Z,10.00
2019-01-20T04:57:41.710Z,8.67
2019-01-20T05:00:18.723Z,10.80
2019-01-20T05:02:47.250Z,10.43
2019-01-20T05:05:15.667Z,10.18
2019-01-20T05:07:44.001Z,9.80
2019-01-20T05:10:14.667Z,8.90
2019-01-20T05:12:42.993Z,10.93
2019-01-20T05:15:16.985Z,11.83
2019-01-20T05:17:45.373Z,10.30
2019-01-20T05:20:14.068Z,10.00
2019-01-20T05:22:42.459Z,9.95
2019-01-20T05:25:12.309Z,10.67
2019-01-20T05:27:41.002Z,11.03
2019-01-20T05:30:12.466Z,10.80
2019-01-20T05:32:41.253Z,13.48
2019-01-20T05:35:10.715Z,10.70
2019-01-20T05:37:39.378Z,11.57
2019-01-20T05:40:10.933Z,9.77
2019-01-20T05:42:46.114Z,11.53
2019-01-20T05:45:20.570Z,11.47
2019-01-20T05:47:48.985Z,10.50
2019-01-20T05:50:17.376Z,10.53
2019-01-20T05:52:45.715Z,9.80
2019-01-20T05:55:15.272Z,10.83
2019-01-20T05:57:44.039Z,13.40
2019-01-20T06:00:20.944Z,11.73
2019-01-20T06:02:49.417Z,10.20
2019-01-20T06:05:17.810Z,11.57
2019-01-20T06:07:46.440Z,10.90
2019-01-20T06:10:14.918Z,11.00
2019-01-20T06:12:43.343Z,11.20
2019-01-20T06:15:20.822Z,9.77
2019-01-20T06:17:49.226Z,11.50
2019-01-20T06:20:18.199Z,10.47
2019-01-20T06:22:46.519Z,12.60
2019-01-20T06:25:14.907Z,11.80
2019-01-20T06:27:43.389Z,11.23
2019-01-20T06:30:17.855Z,11.67
2019-01-20T06:32:46.252Z,10.63
2019-01-20T06:35:14.560Z,9.80
2019-01-20T06:37:43.123Z,12.37
2019-01-20T06:40:11.506Z,12.17
2019-01-20T06:42:39.850Z,10.33
2019-01-20T06:45:11.219Z,11.93
2019-01-20T06:47:39.653Z,11.83
2019-01-20T06:50:10.782Z,12.00
2019-01-20T06:52:39.113Z,12.57
2019-01-20T06:55:09.665Z,11.97
2019-01-20T06:57:38.140Z,12.07
2019-01-20T07:00:15.009Z,10.03
2019-01-20T07:02:43.418Z,10.50
2019-01-20T07:05:12.280Z,11.20
2019-01-20T07:07:41.271Z,10.78
2019-01-20T07:10:12.536Z,12.97
2019-01-20T07:12:40.972Z,13.53
2019-01-20T07:15:20.099Z,11.50
2019-01-20T07:17:48.906Z,11.70
2019-01-20T07:20:17.228Z,12.40
2019-01-20T07:22:45.730Z,13.23
2019-01-20T07:25:14.917Z,12.70
2019-01-20T08:37:02.488Z,12.07
2019-01-20T08:39:29.790Z,14.00
2019-01-20T08:41:57.145Z,15.07
2019-01-20T08:44:25.929Z,16.30
2019-01-20T08:46:53.675Z,21.43
2019-01-20T08:49:20.980Z,21.10
2019-01-20T08:51:48.394Z,18.90
2019-01-20T08:54:15.700Z,16.63
2019-01-20T08:56:43.297Z,14.13
2019-01-20T08:59:10.588Z,14.63
2019-01-20T09:01:37.886Z,14.53
2019-01-20T09:04:05.332Z,15.00
2019-01-20T09:06:32.689Z,12.40
2019-01-20T09:08:59.996Z,12.33
2019-01-20T09:11:27.293Z,13.50
2019-01-20T09:13:54.732Z,15.27
2019-01-20T09:16:22.038Z,14.00
2019-01-20T09:18:49.325Z,14.23
2019-01-20T09:21:16.726Z,13.13
2019-01-20T09:23:44.013Z,15.20
2019-01-20T09:26:11.326Z,14.93
2019-01-20T09:28:38.955Z,14.53
2019-01-20T09:31:06.322Z,15.27
2019-01-20T09:33:33.602Z,14.13
2019-01-20T09:36:00.905Z,13.40
2019-01-20T09:38:28.185Z,15.80
2019-01-20T09:40:55.834Z,15.60
2019-01-20T09:43:23.191Z,15.80
2019-01-20T09:45:51.362Z,14.40
2019-01-20T09:48:18.642Z,17.97
2019-01-20T09:50:45.944Z,16.87
2019-01-20T09:53:13.239Z,16.80
2019-01-20T09:55:42.082Z,16.33
2019-01-20T09:58:09.425Z,16.70
2019-01-20T10:00:36.742Z,15.50
2019-01-20T10:03:04.120Z,15.93
2019-01-20T10:05:31.485Z,17.40
2019-01-20T10:07:59.111Z,16.93
2019-01-20T10:10:26.426Z,16.00
2019-01-20T10:12:53.709Z,16.97
2019-01-20T10:15:21.049Z,16.77
2019-01-20T10:17:48.352Z,15.00
2019-01-20T10:20:23.183Z,17.30
2019-01-20T10:22:50.581Z,18.20
2019-01-20T10:25:18.221Z,16.10
2019-01-20T10:27:45.518Z,17.67
2019-01-20T10:30:14.342Z,17.90
2019-01-20T10:32:41.638Z,18.33
2019-01-20T10:35:09.689Z,17.30
2019-01-20T10:37:37.854Z,16.97
2019-01-20T10:40:06.717Z,16.90
2019-01-20T10:42:34.018Z,16.37
2019-01-20T10:45:01.333Z,16.50
2019-01-20T10:47:28.696Z,18.77
2019-01-20T10:49:55.977Z,18.20
2019-01-20T10:52:24.779Z,19.13
2019-01-20T10:54:52.452Z,17.70
2019-01-20T10:57:19.834Z,19.50
2019-01-20T10:59:47.123Z,17.20
2019-01-20T11:02:14.420Z,17.37
2019-01-20T11:04:41.702Z,19.65
2019-01-20T11:07:09.163Z,19.27
2019-01-20T11:09:36.910Z,17.90
2019-01-20T11:12:04.724Z,20.33
2019-01-20T11:14:32.006Z,18.43
2019-01-20T11:16:59.314Z,17.60
2019-01-20T11:19:26.602Z,17.30
2019-01-20T11:21:53.910Z,17.80
2019-01-20T11:24:21.192Z,17.00
2019-01-20T11:26:48.472Z,16.30
2019-01-20T11:29:15.786Z,17.90
2019-01-20T11:31:43.480Z,18.00
2019-01-20T11:34:11.086Z,17.90
2019-01-20T11:36:38.429Z,20.37
2019-01-20T11:39:08.059Z,20.40
2019-01-20T11:41:35.822Z,20.33
2019-01-20T11:44:03.137Z,18.70
2019-01-20T11:46:30.740Z,20.00
2019-01-20T11:48:58.475Z,18.83
2019-01-20T11:51:25.750Z,16.97
2019-01-20T11:53:53.055Z,17.70
2019-01-20T11:56:20.338Z,16.97
2019-01-20T11:58:47.618Z,16.23
2019-01-20T12:01:14.932Z,18.77
2019-01-20T12:03:42.592Z,17.70
2019-01-20T12:06:10.101Z,19.83
2019-01-20T12:08:37.381Z,17.87
2019-01-20T12:11:04.702Z,18.97
2019-01-20T12:13:31.984Z,19.23
2019-01-20T12:15:59.290Z,17.00
2019-01-20T12:18:26.578Z,18.20
2019-01-20T12:20:54.259Z,17.97
2019-01-20T12:23:21.926Z,19.50
2019-01-20T12:25:49.230Z,18.23
2019-01-20T12:28:16.602Z,17.83
2019-01-20T12:30:44.060Z,19.03
2019-01-20T12:33:12.071Z,17.77
2019-01-20T12:35:39.378Z,16.97
2019-01-20T12:38:06.802Z,17.80
2019-01-20T12:40:38.338Z,20.07
2019-01-20T12:43:05.715Z,20.95
2019-01-20T12:45:34.490Z,18.97
2019-01-20T12:48:01.791Z,20.90
2019-01-20T12:50:29.077Z,19.10
2019-01-20T12:52:56.385Z,17.73
2019-01-20T12:55:24.026Z,17.90
2019-01-20T12:57:51.325Z,17.90
2019-01-20T13:00:19.658Z,18.80
2019-01-20T13:02:47.465Z,17.37
2019-01-20T13:05:14.878Z,16.80
2019-01-20T13:07:42.193Z,19.47
2019-01-20T13:10:16.539Z,18.03
2019-01-20T13:12:43.914Z,17.17
2019-01-20T13:15:12.737Z,18.60
2019-01-20T13:17:40.037Z,18.70
2019-01-20T13:20:08.861Z,18.73
2019-01-20T13:22:36.165Z,18.73
2019-01-20T13:25:04.917Z,18.60
2019-01-20T13:27:32.578Z,17.53
2019-01-20T13:29:59.853Z,16.57
2019-01-20T13:32:27.154Z,18.40
2019-01-20T13:34:54.429Z,18.00
2019-01-20T13:37:21.740Z,18.80
2019-01-20T13:39:49.019Z,19.30
2019-01-20T13:42:16.314Z,18.00
2019-01-20T13:44:46.327Z,16.90
2019-01-20T13:47:12.700Z,17.73
2019-01-20T13:49:39.993Z,19.37
2019-01-20T13:52:07.368Z,18.37
2019-01-20T13:54:34.951Z,18.03
2019-01-20T13:57:02.623Z,17.93
2019-01-20T13:59:30.273Z,18.93
2019-01-20T14:01:57.937Z,17.60
2019-01-20T14:04:25.308Z,17.60
2019-01-20T14:06:52.586Z,19.50
2019-01-20T14:09:19.891Z,19.07
2019-01-20T14:11:47.173Z,18.20
2019-01-20T14:14:14.478Z,16.67
2019-01-20T14:16:41.764Z,20.20
2019-01-20T14:19:09.129Z,19.00
2019-01-20T14:21:36.552Z,19.10
2019-01-20T14:24:03.918Z,19.27
2019-01-20T14:26:31.197Z,21.20
2019-01-20T14:28:58.515Z,19.53
2019-01-20T14:31:25.859Z,20.37
2019-01-20T14:33:53.164Z,19.13
2019-01-20T14:36:20.443Z,20.80
2019-01-20T14:38:47.741Z,18.40
2019-01-20T14:41:15.025Z,18.37
2019-01-20T14:43:42.316Z,18.70
2019-01-20T14:46:09.605Z,20.10
2019-01-20T14:48:36.970Z,18.10
2019-01-20T14:51:04.323Z,18.10
2019-01-20T14:53:31.698Z,19.13
2019-01-20T14:55:59.300Z,18.27
2019-01-20T14:58:26.669Z,20.10
2019-01-20T15:00:53.961Z,21.53
2019-01-20T15:03:21.408Z,20.67
2019-01-20T15:05:48.686Z,19.63
2019-01-20T15:08:15.998Z,19.27
2019-01-20T15:10:43.277Z,18.03
2019-01-20T15:13:10.582Z,18.37
2019-01-20T15:15:39.527Z,19.53
2019-01-20T15:18:07.893Z,18.73
2019-01-20T15:20:35.377Z,18.50
2019-01-20T15:23:02.785Z,18.50
2019-01-20T15:25:30.168Z,17.67
2019-01-20T15:27:57.718Z,20.10
2019-01-20T15:30:26.510Z,20.00
2019-01-20T15:32:54.127Z,19.10
2019-01-20T15:35:22.180Z,18.67
2019-01-20T15:37:50.313Z,21.40
2019-01-20T15:40:18.992Z,18.77
2019-01-20T15:42:46.450Z,17.70
2019-01-20T15:45:16.530Z,20.70
2019-01-20T15:47:44.676Z,20.70
2019-01-20T15:50:13.588Z,20.20
2019-01-20T15:52:41.009Z,19.10
2019-01-20T15:55:09.597Z,20.17
2019-01-20T15:57:36.975Z,19.53
2019-01-20T16:00:06.258Z,22.23
2019-01-20T16:02:33.541Z,19.53
2019-01-20T16:05:00.838Z,20.33
2019-01-20T16:07:28.120Z,20.03
2019-01-20T16:09:55.417Z,18.43
2019-01-20T16:12:23.052Z,21.43
2019-01-20T16:14:50.346Z,19.70
2019-01-20T16:17:17.776Z,20.03
2019-01-20T16:19:45.149Z,20.10
2019-01-20T16:22:12.509Z,21.30
2019-01-20T16:24:39.813Z,20.43
2019-01-20T16:27:07.250Z,20.10
2019-01-20T16:29:34.604Z,21.00
2019-01-20T16:32:01.979Z,22.40
2019-01-20T16:34:29.333Z,20.00
2019-01-20T16:36:56.672Z,20.83
2019-01-20T16:39:23.951Z,21.13
2019-01-20T16:41:51.392Z,21.97
2019-01-20T16:44:19.008Z,24.53
2019-01-20T16:46:46.309Z,26.40
2019-01-20T16:49:13.602Z,29.00
2019-01-20T16:51:41.286Z,25.03
2019-01-20T16:54:08.566Z,23.10
2019-01-20T16:56:35.936Z,20.00
2019-01-20T16:59:03.299Z,21.93
2019-01-20T17:01:30.678Z,21.33
2019-01-20T17:03:57.953Z,21.80
2019-01-20T17:06:25.259Z,22.73
2019-01-20T17:08:52.611Z,21.53
2019-01-20T17:11:19.906Z,21.20
2019-01-20T17:13:50.282Z,22.10
2019-01-20T17:16:17.618Z,21.70
2019-01-20T17:18:44.897Z,23.40
2019-01-20T17:21:12.480Z,23.90
2019-01-20T17:23:39.834Z,24.40
2019-01-20T17:26:07.210Z,23.37
2019-01-20T17:28:34.555Z,24.37
2019-01-20T17:31:01.940Z,24.60
2019-01-20T17:33:29.293Z,22.67
2019-01-20T17:35:56.742Z,24.47
2019-01-20T17:38:24.202Z,25.47
2019-01-20T17:40:51.569Z,24.90
2019-01-20T17:43:18.851Z,21.30
2019-01-20T17:45:49.936Z,23.70
2019-01-20T17:48:16.802Z,25.10
2019-01-20T17:50:44.468Z,26.30
2019-01-20T17:53:12.196Z,23.20
2019-01-20T17:55:39.544Z,24.97
2019-01-20T17:58:06.913Z,20.53
2019-01-20T18:00:42.630Z,25.27
2019-01-20T18:03:09.925Z,26.53
2019-01-20T18:05:37.297Z,36.07
2019-01-20T18:08:04.701Z,27.17
2019-01-20T18:10:32.053Z,24.20
2019-01-20T18:12:59.481Z,25.93
2019-01-20T18:15:27.138Z,23.97
2019-01-20T18:17:54.885Z,23.60
2019-01-20T18:20:23.713Z,25.10
2019-01-20T18:22:51.339Z,27.20
2019-01-20T18:25:19.718Z,24.03
2019-01-20T18:27:47.018Z,25.93
2019-01-20T18:30:22.099Z,27.40
2019-01-20T18:32:49.797Z,26.20
2019-01-20T18:35:17.516Z,23.37
2019-01-20T18:37:44.882Z,26.70
2019-01-20T18:40:14.002Z,28.23
2019-01-20T18:42:41.372Z,34.73
2019-01-20T18:45:10.426Z,29.00
2019-01-20T18:47:37.732Z,26.53
2019-01-20T18:50:06.562Z,24.90
2019-01-20T18:52:33.924Z,27.73
2019-01-20T18:55:01.205Z,27.20
2019-01-20T18:57:28.581Z,27.60
2019-01-20T18:59:55.858Z,26.23
2019-01-20T19:02:23.497Z,28.40
2019-01-20T19:04:50.791Z,25.93
2019-01-20T19:07:18.093Z,28.73
2019-01-20T19:09:45.381Z,25.63
2019-01-20T19:12:12.687Z,25.23
2019-01-20T19:14:40.105Z,25.20
2019-01-20T19:17:07.401Z,27.97
2019-01-20T19:19:34.922Z,25.93
2019-01-20T19:22:02.203Z,27.77
2019-01-20T19:24:29.509Z,29.37
2019-01-20T19:26:56.802Z,31.87
2019-01-20T19:29:24.166Z,28.30
2019-01-20T19:31:51.790Z,27.60
2019-01-20T19:34:19.158Z,27.47
2019-01-20T19:36:46.454Z,26.77
2019-01-20T19:39:13.830Z,30.00
2019-01-20T19:41:41.117Z,25.90
2019-01-20T19:44:08.493Z,26.60
2019-01-20T19:46:35.846Z,24.60
2019-01-20T19:49:03.436Z,25.83
2019-01-20T19:51:30.739Z,30.27
2019-01-20T19:53:58.044Z,30.30
2019-01-20T19:56:25.326Z,27.20
2019-01-20T19:58:52.633Z,28.43
2019-01-20T20:01:20.290Z,29.13
2019-01-20T20:03:47.663Z,29.30
2019-01-20T20:06:15.018Z,29.17
2019-01-20T20:08:42.686Z,27.73
2019-01-20T20:11:10.098Z,28.77
2019-01-20T20:13:37.489Z,26.63
2019-01-20T20:16:04.848Z,30.60
2019-01-20T20:18:32.237Z,29.53
2019-01-20T20:20:59.651Z,27.90
2019-01-20T20:23:27.010Z,30.70
2019-01-20T20:25:54.313Z,26.73
2019-01-20T20:28:21.674Z,29.57
2019-01-20T20:30:49.052Z,29.00
2019-01-20T20:33:16.350Z,26.80
2019-01-20T20:35:43.645Z,29.03
2019-01-20T20:38:10.932Z,30.10
2019-01-20T20:40:38.249Z,30.87
2019-01-20T20:43:05.658Z,28.20
2019-01-20T20:45:33.062Z,26.93
2019-01-20T20:48:00.414Z,27.07
2019-01-20T20:50:27.840Z,26.47
2019-01-20T20:52:55.520Z,26.30
2019-01-20T20:55:23.294Z,32.67
2019-01-20T20:57:50.879Z,29.13
2019-01-20T21:00:20.086Z,29.57
2019-01-20T21:02:47.454Z,27.10
2019-01-20T21:05:14.763Z,25.07
2019-01-20T21:07:42.547Z,23.97
2019-01-20T21:10:11.773Z,22.10
2019-01-20T21:12:39.071Z,24.83
2019-01-20T21:15:07.907Z,27.53
2019-01-20T21:17:35.251Z,28.20
2019-01-20T21:20:02.633Z,22.50
2019-01-20T21:22:29.913Z,26.17
2019-01-20T21:24:57.613Z,26.13
2019-01-20T21:27:25.288Z,18.97
2019-01-20T21:29:52.606Z,20.83
2019-01-20T21:32:19.958Z,19.40
2019-01-20T21:34:47.274Z,14.97
2019-01-20T21:37:14.549Z,14.33
2019-01-20T21:39:41.835Z,15.30
2019-01-20T21:42:09.200Z,13.77
2019-01-20T21:44:36.783Z,11.77
2019-01-20T21:47:04.145Z,12.80
2019-01-20T21:49:31.431Z,12.23
2019-01-20T21:51:58.729Z,11.20
2019-01-20T21:54:26.013Z,11.10
2019-01-20T21:56:53.391Z,10.93
2019-01-20T21:59:20.671Z,9.80
2019-01-20T22:01:47.974Z,11.40
2019-01-20T22:04:15.249Z,12.93
2019-01-20T22:06:42.565Z,11.80
2019-01-20T22:09:09.946Z,12.10
2019-01-20T22:11:37.255Z,11.57
2019-01-20T22:14:04.602Z,10.30
2019-01-20T22:16:31.972Z,11.27
2019-01-20T22:18:59.362Z,12.57
2019-01-20T22:21:26.735Z,11.90
2019-01-20T22:23:54.020Z,10.53
2019-01-20T22:26:21.759Z,10.80
2019-01-20T22:28:49.043Z,13.23
2019-01-20T22:31:16.409Z,13.50
2019-01-20T22:33:43.692Z,10.30
2019-01-20T22:36:11.001Z,11.27
2019-01-20T22:38:38.286Z,10.90
2019-01-20T22:41:05.660Z,12.00
2019-01-20T22:43:33.005Z,14.43
2019-01-20T22:46:00.310Z,14.60
2019-01-20T22:48:27.596Z,14.10
2019-01-20T22:50:54.873Z,17.13
2019-01-20T22:53:22.169Z,13.03
2019-01-20T22:55:49.853Z,12.67
2019-01-20T22:58:17.155Z,13.67
2019-01-20T23:00:47.246Z,11.33
2019-01-20T23:03:14.729Z,11.00
2019-01-20T23:05:42.020Z,13.03
2019-01-20T23:08:09.350Z,12.23
2019-01-20T23:10:36.638Z,12.30
2019-01-20T23:13:04.234Z,13.57
2019-01-20T23:15:31.570Z,12.50
2019-01-20T23:17:58.980Z,12.37
2019-01-20T23:20:26.302Z,11.73
2019-01-20T23:22:53.783Z,11.53
2019-01-20T23:25:21.231Z,13.13
2019-01-20T23:27:48.622Z,13.83
2019-01-20T23:30:16.966Z,16.10
2019-01-20T23:32:44.333Z,14.43
2019-01-20T23:35:11.605Z,14.57
2019-01-20T23:37:38.982Z,13.77
2019-01-20T23:40:07.798Z,15.37
2019-01-20T23:42:35.106Z,14.57
2019-01-20T23:45:02.458Z,14.30
2019-01-20T23:47:29.766Z,13.80
2019-01-20T23:49:57.053Z,13.20
2019-01-20T23:52:24.358Z,12.20
2019-01-20T23:54:51.638Z,12.60
2019-01-20T23:57:18.948Z,12.27
2019-01-20T23:59:46.297Z,15.00
